sensor_id;sensor_type;location;lat;lon;timestamp;pressure;altitude;pressure_sealevel;temperature;humidity
57048;BME280;42934;54.294;18.598;2023-03-31T00:01:59;99377.22;;;9.21;91.36
57048;BME280;42934;54.294;18.598;2023-03-31T00:04:28;99362.91;;;9.28;91.05
57048;BME280;42934;54.294;18.598;2023-03-31T00:06:59;99360.09;;;9.32;91.05
57048;BME280;42934;54.294;18.598;2023-03-31T00:09:28;99365.47;;;9.29;91.30
57048;BME280;42934;54.294;18.598;2023-03-31T00:12:00;99362.63;;;9.34;90.85
57048;BME280;42934;54.294;18.598;2023-03-31T00:14:29;99372.59;;;9.26;90.85
57048;BME280;42934;54.294;18.598;2023-03-31T00:17:00;99360.25;;;9.47;89.85
57048;BME280;42934;54.294;18.598;2023-03-31T00:19:31;99359.00;;;9.37;89.94
57048;BME280;42934;54.294;18.598;2023-03-31T00:22:01;99363.41;;;9.36;89.73
57048;BME280;42934;54.294;18.598;2023-03-31T00:24:32;99361.22;;;9.27;89.80
57048;BME280;42934;54.294;18.598;2023-03-31T00:27:04;99368.50;;;9.20;90.10
57048;BME280;42934;54.294;18.598;2023-03-31T00:29:33;99373.19;;;9.32;89.37
57048;BME280;42934;54.294;18.598;2023-03-31T00:32:04;99366.91;;;9.35;89.59
57048;BME280;42934;54.294;18.598;2023-03-31T00:34:33;99374.94;;;9.32;89.13
57048;BME280;42934;54.294;18.598;2023-03-31T00:37:03;99379.97;;;9.37;89.04
57048;BME280;42934;54.294;18.598;2023-03-31T00:39:32;99370.72;;;9.47;88.52
57048;BME280;42934;54.294;18.598;2023-03-31T00:42:02;99388.41;;;9.24;89.34
57048;BME280;42934;54.294;18.598;2023-03-31T00:44:31;99378.84;;;9.23;89.65
57048;BME280;42934;54.294;18.598;2023-03-31T00:47:05;99388.69;;;9.18;89.77
57048;BME280;42934;54.294;18.598;2023-03-31T00:49:40;99382.44;;;9.40;89.21
57048;BME280;42934;54.294;18.598;2023-03-31T00:52:15;99378.03;;;9.40;88.47
57048;BME280;42934;54.294;18.598;2023-03-31T00:54:47;99369.84;;;9.29;89.15
57048;BME280;42934;54.294;18.598;2023-03-31T00:57:17;99381.31;;;9.26;89.19
57048;BME280;42934;54.294;18.598;2023-03-31T00:59:50;99384.06;;;9.23;89.47
57048;BME280;42934;54.294;18.598;2023-03-31T01:02:22;99384.25;;;9.38;88.59
57048;BME280;42934;54.294;18.598;2023-03-31T01:04:55;99395.13;;;9.30;89.14
57048;BME280;42934;54.294;18.598;2023-03-31T01:07:30;99386.75;;;9.41;88.47
57048;BME280;42934;54.294;18.598;2023-03-31T01:10:05;99374.78;;;9.35;88.48
57048;BME280;42934;54.294;18.598;2023-03-31T01:12:38;99383.13;;;9.43;88.59
57048;BME280;42934;54.294;18.598;2023-03-31T01:15:09;99389.94;;;9.28;88.69
57048;BME280;42934;54.294;18.598;2023-03-31T01:17:40;99395.97;;;9.30;89.16
57048;BME280;42934;54.294;18.598;2023-03-31T01:20:17;99394.97;;;9.33;88.68
57048;BME280;42934;54.294;18.598;2023-03-31T01:26:41;99401.69;;;9.39;89.08
57048;BME280;42934;54.294;18.598;2023-03-31T01:29:25;99400.06;;;9.36;89.30
57048;BME280;42934;54.294;18.598;2023-03-31T01:35:25;99391.44;;;9.34;89.36
57048;BME280;42934;54.294;18.598;2023-03-31T01:41:34;99388.47;;;9.23;89.69
57048;BME280;42934;54.294;18.598;2023-03-31T01:44:11;99394.50;;;9.25;89.57
57048;BME280;42934;54.294;18.598;2023-03-31T01:46:50;99399.22;;;9.36;89.02
57048;BME280;42934;54.294;18.598;2023-03-31T01:49:24;99397.13;;;9.25;89.34
57048;BME280;42934;54.294;18.598;2023-03-31T01:52:02;99389.94;;;9.28;89.42
57048;BME280;42934;54.294;18.598;2023-03-31T01:54:37;99387.97;;;9.33;89.54
57048;BME280;42934;54.294;18.598;2023-03-31T01:57:15;99386.53;;;9.45;88.80
57048;BME280;42934;54.294;18.598;2023-03-31T01:59:57;99387.19;;;9.31;89.05
57048;BME280;42934;54.294;18.598;2023-03-31T02:02:41;99390.66;;;9.32;89.57
57048;BME280;42934;54.294;18.598;2023-03-31T02:05:17;99378.19;;;9.37;89.27
57048;BME280;42934;54.294;18.598;2023-03-31T02:07:52;99378.97;;;9.39;89.20
57048;BME280;42934;54.294;18.598;2023-03-31T02:10:25;99381.31;;;9.26;89.90
57048;BME280;42934;54.294;18.598;2023-03-31T02:13:01;99383.81;;;9.29;90.20
57048;BME280;42934;54.294;18.598;2023-03-31T02:15:34;99370.13;;;9.42;89.43
57048;BME280;42934;54.294;18.598;2023-03-31T02:18:08;99368.94;;;9.30;89.80
57048;BME280;42934;54.294;18.598;2023-03-31T02:20:40;99371.75;;;9.25;90.30
57048;BME280;42934;54.294;18.598;2023-03-31T02:23:15;99364.69;;;9.27;90.27
57048;BME280;42934;54.294;18.598;2023-03-31T02:25:49;99370.50;;;9.15;90.71
57048;BME280;42934;54.294;18.598;2023-03-31T02:28:24;99356.75;;;9.29;90.26
57048;BME280;42934;54.294;18.598;2023-03-31T02:31:05;99366.22;;;9.31;89.41
57048;BME280;42934;54.294;18.598;2023-03-31T02:33:35;99367.50;;;9.23;90.16
57048;BME280;42934;54.294;18.598;2023-03-31T02:36:05;99369.28;;;9.22;90.58
57048;BME280;42934;54.294;18.598;2023-03-31T02:38:38;99357.13;;;9.21;90.20
57048;BME280;42934;54.294;18.598;2023-03-31T02:41:11;99356.28;;;9.21;90.26
57048;BME280;42934;54.294;18.598;2023-03-31T02:43:42;99350.13;;;9.03;91.49
57048;BME280;42934;54.294;18.598;2023-03-31T02:46:11;99349.72;;;9.12;91.61
57048;BME280;42934;54.294;18.598;2023-03-31T02:48:43;99346.25;;;8.93;92.85
57048;BME280;42934;54.294;18.598;2023-03-31T02:51:38;99339.00;;;9.17;91.93
57048;BME280;42934;54.294;18.598;2023-03-31T02:57:30;99346.47;;;9.07;92.64
57048;BME280;42934;54.294;18.598;2023-03-31T03:00:08;99337.06;;;9.20;91.64
57048;BME280;42934;54.294;18.598;2023-03-31T03:02:58;99339.94;;;9.16;91.73
57048;BME280;42934;54.294;18.598;2023-03-31T03:05:37;99345.50;;;9.27;90.89
57048;BME280;42934;54.294;18.598;2023-03-31T03:08:46;99351.66;;;9.26;90.91
57048;BME280;42934;54.294;18.598;2023-03-31T03:11:28;99358.25;;;9.16;91.72
57048;BME280;42934;54.294;18.598;2023-03-31T03:14:06;99341.25;;;9.24;91.14
57048;BME280;42934;54.294;18.598;2023-03-31T03:16:41;99351.53;;;9.10;92.12
57048;BME280;42934;54.294;18.598;2023-03-31T03:19:19;99342.47;;;9.17;91.51
57048;BME280;42934;54.294;18.598;2023-03-31T03:21:49;99345.72;;;9.22;91.02
57048;BME280;42934;54.294;18.598;2023-03-31T03:24:18;99349.78;;;9.10;91.90
57048;BME280;42934;54.294;18.598;2023-03-31T03:26:50;99356.16;;;9.05;92.34
57048;BME280;42934;54.294;18.598;2023-03-31T03:29:19;99352.63;;;9.06;92.71
57048;BME280;42934;54.294;18.598;2023-03-31T03:31:50;99352.72;;;8.85;93.09
57048;BME280;42934;54.294;18.598;2023-03-31T03:34:19;99351.63;;;8.90;93.37
57048;BME280;42934;54.294;18.598;2023-03-31T03:36:48;99350.34;;;8.98;93.17
57048;BME280;42934;54.294;18.598;2023-03-31T03:39:18;99347.78;;;9.16;92.22
57048;BME280;42934;54.294;18.598;2023-03-31T03:41:48;99343.25;;;9.19;91.60
57048;BME280;42934;54.294;18.598;2023-03-31T03:44:17;99355.84;;;9.11;91.60
57048;BME280;42934;54.294;18.598;2023-03-31T03:46:46;99359.09;;;9.16;91.72
57048;BME280;42934;54.294;18.598;2023-03-31T03:49:17;99348.13;;;9.27;90.70
57048;BME280;42934;54.294;18.598;2023-03-31T03:51:47;99344.94;;;9.20;91.00
57048;BME280;42934;54.294;18.598;2023-03-31T03:54:16;99340.47;;;9.22;91.05
57048;BME280;42934;54.294;18.598;2023-03-31T03:56:45;99342.00;;;9.09;91.40
57048;BME280;42934;54.294;18.598;2023-03-31T03:59:15;99349.41;;;8.99;91.42
57048;BME280;42934;54.294;18.598;2023-03-31T04:01:44;99345.03;;;9.00;91.51
57048;BME280;42934;54.294;18.598;2023-03-31T04:04:13;99337.75;;;9.06;91.35
57048;BME280;42934;54.294;18.598;2023-03-31T04:06:44;99347.72;;;8.79;92.27
57048;BME280;42934;54.294;18.598;2023-03-31T04:09:13;99329.47;;;8.97;91.97
57048;BME280;42934;54.294;18.598;2023-03-31T04:11:43;99329.47;;;8.97;91.63
57048;BME280;42934;54.294;18.598;2023-03-31T04:14:12;99322.63;;;8.94;91.69
57048;BME280;42934;54.294;18.598;2023-03-31T04:16:41;99333.75;;;8.80;92.30
57048;BME280;42934;54.294;18.598;2023-03-31T04:19:14;99318.69;;;8.85;92.01
57048;BME280;42934;54.294;18.598;2023-03-31T04:21:46;99324.47;;;8.92;91.45
57048;BME280;42934;54.294;18.598;2023-03-31T04:24:17;99322.75;;;8.91;91.68
57048;BME280;42934;54.294;18.598;2023-03-31T04:26:49;99314.97;;;8.90;91.78
57048;BME280;42934;54.294;18.598;2023-03-31T04:29:18;99310.59;;;8.90;91.67
57048;BME280;42934;54.294;18.598;2023-03-31T04:31:50;99310.44;;;8.93;91.20
57048;BME280;42934;54.294;18.598;2023-03-31T04:34:20;99311.22;;;8.76;91.90
57048;BME280;42934;54.294;18.598;2023-03-31T04:36:55;99307.72;;;8.77;92.88
57048;BME280;42934;54.294;18.598;2023-03-31T04:39:24;99313.66;;;8.81;92.36
57048;BME280;42934;54.294;18.598;2023-03-31T04:41:58;99302.44;;;8.96;91.72
57048;BME280;42934;54.294;18.598;2023-03-31T04:44:28;99298.44;;;8.89;91.41
57048;BME280;42934;54.294;18.598;2023-03-31T04:46:58;99288.41;;;8.80;92.34
57048;BME280;42934;54.294;18.598;2023-03-31T04:49:30;99297.53;;;8.71;92.20
57048;BME280;42934;54.294;18.598;2023-03-31T04:52:02;99293.00;;;8.75;92.06
57048;BME280;42934;54.294;18.598;2023-03-31T04:54:31;99289.75;;;8.89;91.61
57048;BME280;42934;54.294;18.598;2023-03-31T04:57:01;99286.03;;;8.93;91.23
57048;BME280;42934;54.294;18.598;2023-03-31T04:59:30;99274.34;;;8.82;91.36
57048;BME280;42934;54.294;18.598;2023-03-31T05:01:59;99281.75;;;8.92;91.15
57048;BME280;42934;54.294;18.598;2023-03-31T05:04:29;99284.66;;;9.03;90.87
57048;BME280;42934;54.294;18.598;2023-03-31T05:06:58;99275.56;;;8.93;90.78
57048;BME280;42934;54.294;18.598;2023-03-31T05:09:28;99279.72;;;8.97;90.50
57048;BME280;42934;54.294;18.598;2023-03-31T05:11:59;99277.91;;;8.99;90.83
57048;BME280;42934;54.294;18.598;2023-03-31T05:14:29;99279.66;;;8.98;90.98
57048;BME280;42934;54.294;18.598;2023-03-31T05:16:58;99275.72;;;8.90;91.26
57048;BME280;42934;54.294;18.598;2023-03-31T05:19:28;99277.25;;;8.94;90.80
57048;BME280;42934;54.294;18.598;2023-03-31T05:21:57;99279.81;;;8.95;90.78
57048;BME280;42934;54.294;18.598;2023-03-31T05:24:27;99277.69;;;9.03;90.50
57048;BME280;42934;54.294;18.598;2023-03-31T05:26:57;99271.72;;;8.82;91.66
57048;BME280;42934;54.294;18.598;2023-03-31T05:29:26;99275.38;;;8.97;91.28
57048;BME280;42934;54.294;18.598;2023-03-31T05:31:56;99277.94;;;9.16;90.07
57048;BME280;42934;54.294;18.598;2023-03-31T05:34:25;99285.72;;;9.18;89.83
57048;BME280;42934;54.294;18.598;2023-03-31T05:36:54;99279.06;;;9.10;89.99
57048;BME280;42934;54.294;18.598;2023-03-31T05:39:23;99280.69;;;9.13;89.85
57048;BME280;42934;54.294;18.598;2023-03-31T05:41:54;99280.69;;;9.13;89.62
57048;BME280;42934;54.294;18.598;2023-03-31T05:44:23;99274.94;;;8.87;90.76
57048;BME280;42934;54.294;18.598;2023-03-31T05:46:53;99271.13;;;8.95;91.09
57048;BME280;42934;54.294;18.598;2023-03-31T05:49:23;99278.75;;;8.99;90.83
57048;BME280;42934;54.294;18.598;2023-03-31T05:51:52;99273.78;;;9.12;90.51
57048;BME280;42934;54.294;18.598;2023-03-31T05:54:21;99268.53;;;9.12;90.16
57048;BME280;42934;54.294;18.598;2023-03-31T05:56:50;99282.47;;;9.13;90.31
57048;BME280;42934;54.294;18.598;2023-03-31T05:59:21;99277.13;;;8.97;90.62
57048;BME280;42934;54.294;18.598;2023-03-31T06:01:51;99276.53;;;9.09;90.23
57048;BME280;42934;54.294;18.598;2023-03-31T06:04:20;99266.81;;;9.11;90.45
57048;BME280;42934;54.294;18.598;2023-03-31T06:06:51;99268.38;;;9.15;90.13
57048;BME280;42934;54.294;18.598;2023-03-31T06:09:21;99272.00;;;9.13;90.29
57048;BME280;42934;54.294;18.598;2023-03-31T06:11:51;99263.06;;;9.17;90.72
57048;BME280;42934;54.294;18.598;2023-03-31T06:14:22;99266.38;;;9.20;89.95
57048;BME280;42934;54.294;18.598;2023-03-31T06:16:51;99275.84;;;9.23;90.11
57048;BME280;42934;54.294;18.598;2023-03-31T06:19:24;99261.38;;;9.33;89.62
57048;BME280;42934;54.294;18.598;2023-03-31T06:21:53;99254.34;;;9.16;90.07
57048;BME280;42934;54.294;18.598;2023-03-31T06:24:22;99267.50;;;9.15;90.67
57048;BME280;42934;54.294;18.598;2023-03-31T06:26:51;99262.59;;;9.26;90.29
57048;BME280;42934;54.294;18.598;2023-03-31T06:29:22;99264.91;;;9.15;90.81
57048;BME280;42934;54.294;18.598;2023-03-31T06:31:51;99260.59;;;9.14;90.76
57048;BME280;42934;54.294;18.598;2023-03-31T06:34:21;99252.25;;;9.05;91.12
57048;BME280;42934;54.294;18.598;2023-03-31T06:36:50;99270.66;;;9.04;91.28
57048;BME280;42934;54.294;18.598;2023-03-31T06:39:20;99270.75;;;9.20;90.91
57048;BME280;42934;54.294;18.598;2023-03-31T06:41:49;99268.31;;;9.34;89.85
57048;BME280;42934;54.294;18.598;2023-03-31T06:44:27;99268.47;;;9.31;90.25
57048;BME280;42934;54.294;18.598;2023-03-31T06:46:57;99253.69;;;9.30;90.29
57048;BME280;42934;54.294;18.598;2023-03-31T06:49:26;99266.94;;;9.27;90.54
57048;BME280;42934;54.294;18.598;2023-03-31T06:51:55;99263.59;;;9.23;90.79
57048;BME280;42934;54.294;18.598;2023-03-31T06:54:24;99261.69;;;9.27;90.47
57048;BME280;42934;54.294;18.598;2023-03-31T06:56:54;99262.22;;;9.33;90.25
57048;BME280;42934;54.294;18.598;2023-03-31T06:59:23;99269.72;;;9.24;91.22
57048;BME280;42934;54.294;18.598;2023-03-31T07:01:54;99262.00;;;9.21;91.51
57048;BME280;42934;54.294;18.598;2023-03-31T07:04:23;99261.00;;;9.41;90.77
57048;BME280;42934;54.294;18.598;2023-03-31T07:06:52;99266.66;;;9.14;91.56
57048;BME280;42934;54.294;18.598;2023-03-31T07:09:22;99266.16;;;9.25;91.33
57048;BME280;42934;54.294;18.598;2023-03-31T07:11:51;99264.59;;;9.38;90.32
57048;BME280;42934;54.294;18.598;2023-03-31T07:14:23;99264.47;;;9.41;90.57
57048;BME280;42934;54.294;18.598;2023-03-31T07:16:54;99269.00;;;9.38;90.62
57048;BME280;42934;54.294;18.598;2023-03-31T07:19:23;99260.25;;;9.39;90.52
57048;BME280;42934;54.294;18.598;2023-03-31T07:21:53;99253.38;;;9.36;90.82
57048;BME280;42934;54.294;18.598;2023-03-31T07:24:23;99261.53;;;9.30;91.28
57048;BME280;42934;54.294;18.598;2023-03-31T07:26:53;99254.75;;;9.26;91.39
57048;BME280;42934;54.294;18.598;2023-03-31T07:29:23;99250.66;;;9.38;91.33
57048;BME280;42934;54.294;18.598;2023-03-31T07:31:53;99247.97;;;9.57;90.36
57048;BME280;42934;54.294;18.598;2023-03-31T07:34:23;99237.66;;;9.53;90.48
57048;BME280;42934;54.294;18.598;2023-03-31T07:36:55;99247.56;;;9.64;90.80
57048;BME280;42934;54.294;18.598;2023-03-31T07:39:24;99243.94;;;9.67;90.54
57048;BME280;42934;54.294;18.598;2023-03-31T07:41:53;99254.94;;;9.73;89.94
57048;BME280;42934;54.294;18.598;2023-03-31T07:44:23;99241.16;;;9.70;nan
57048;BME280;42934;54.294;18.598;2023-03-31T07:46:54;99250.25;;;9.80;89.71
57048;BME280;42934;54.294;18.598;2023-03-31T07:49:25;99241.72;;;9.76;88.68
57048;BME280;42934;54.294;18.598;2023-03-31T07:51:54;99240.00;;;9.75;88.60
57048;BME280;42934;54.294;18.598;2023-03-31T07:54:24;99241.25;;;9.68;87.95
57048;BME280;42934;54.294;18.598;2023-03-31T07:56:54;99237.75;;;9.85;87.87
57048;BME280;42934;54.294;18.598;2023-03-31T07:59:23;99242.69;;;9.91;87.75
57048;BME280;42934;54.294;18.598;2023-03-31T08:01:54;99228.09;;;10.03;87.67
57048;BME280;42934;54.294;18.598;2023-03-31T08:04:23;99230.06;;;10.15;87.55
57048;BME280;42934;54.294;18.598;2023-03-31T08:06:53;99236.53;;;10.08;86.60
57048;BME280;42934;54.294;18.598;2023-03-31T08:09:22;99235.13;;;10.18;86.15
57048;BME280;42934;54.294;18.598;2023-03-31T08:11:51;99234.78;;;10.24;85.49
57048;BME280;42934;54.294;18.598;2023-03-31T08:14:20;99234.31;;;10.34;85.34
57048;BME280;42934;54.294;18.598;2023-03-31T08:17:09;99238.22;;;10.27;85.82
57048;BME280;42934;54.294;18.598;2023-03-31T08:19:39;99221.34;;;10.15;85.22
57048;BME280;42934;54.294;18.598;2023-03-31T08:22:08;99219.38;;;10.18;84.71
57048;BME280;42934;54.294;18.598;2023-03-31T08:24:37;99223.09;;;10.14;84.58
57048;BME280;42934;54.294;18.598;2023-03-31T08:27:06;99220.72;;;10.27;84.65
57048;BME280;42934;54.294;18.598;2023-03-31T08:29:40;99207.50;;;10.44;84.14
57048;BME280;42934;54.294;18.598;2023-03-31T08:32:11;99214.84;;;10.38;84.09
57048;BME280;42934;54.294;18.598;2023-03-31T08:34:40;99220.19;;;10.36;83.39
57048;BME280;42934;54.294;18.598;2023-03-31T08:37:10;99204.19;;;10.41;82.98
57048;BME280;42934;54.294;18.598;2023-03-31T08:39:39;99209.03;;;10.49;83.18
57048;BME280;42934;54.294;18.598;2023-03-31T08:42:14;99197.69;;;10.48;82.72
57048;BME280;42934;54.294;18.598;2023-03-31T08:44:47;99207.91;;;10.53;82.49
57048;BME280;42934;54.294;18.598;2023-03-31T08:47:22;99197.75;;;10.62;82.85
57048;BME280;42934;54.294;18.598;2023-03-31T08:49:55;99197.41;;;10.68;81.87
57048;BME280;42934;54.294;18.598;2023-03-31T08:52:30;99196.06;;;10.77;82.38
57048;BME280;42934;54.294;18.598;2023-03-31T08:55:04;99197.66;;;10.80;81.09
57048;BME280;42934;54.294;18.598;2023-03-31T08:57:39;99199.25;;;10.82;80.03
57048;BME280;42934;54.294;18.598;2023-03-31T09:00:15;99195.00;;;10.96;78.79
57048;BME280;42934;54.294;18.598;2023-03-31T09:02:51;99194.56;;;11.03;78.15
57048;BME280;42934;54.294;18.598;2023-03-31T09:08:32;99197.50;;;11.13;78.10
57048;BME280;42934;54.294;18.598;2023-03-31T09:11:09;99183.00;;;11.06;78.14
57048;BME280;42934;54.294;18.598;2023-03-31T09:16:41;99188.59;;;11.16;78.21
57048;BME280;42934;54.294;18.598;2023-03-31T09:19:19;99188.38;;;11.04;78.29
57048;BME280;42934;54.294;18.598;2023-03-31T09:21:50;99179.38;;;11.08;78.34
57048;BME280;42934;54.294;18.598;2023-03-31T09:24:26;99191.81;;;11.21;78.84
57048;BME280;42934;54.294;18.598;2023-03-31T09:27:01;99182.50;;;11.15;76.84
57048;BME280;42934;54.294;18.598;2023-03-31T09:29:40;99179.09;;;11.13;77.05
57048;BME280;42934;54.294;18.598;2023-03-31T09:32:14;99184.25;;;11.14;77.27
57048;BME280;42934;54.294;18.598;2023-03-31T09:34:46;99181.91;;;11.10;77.24
57048;BME280;42934;54.294;18.598;2023-03-31T09:37:18;99177.63;;;11.23;77.61
57048;BME280;42934;54.294;18.598;2023-03-31T09:39:47;99182.91;;;11.37;77.12
57048;BME280;42934;54.294;18.598;2023-03-31T09:42:17;99180.59;;;11.47;77.66
57048;BME280;42934;54.294;18.598;2023-03-31T09:44:48;99183.50;;;11.43;75.20
57048;BME280;42934;54.294;18.598;2023-03-31T09:47:27;99181.25;;;11.51;75.54
57048;BME280;42934;54.294;18.598;2023-03-31T09:49:58;99179.44;;;11.37;73.52
57048;BME280;42934;54.294;18.598;2023-03-31T09:52:30;99180.38;;;11.36;74.79
57048;BME280;42934;54.294;18.598;2023-03-31T09:55:00;99184.25;;;11.45;75.55
57048;BME280;42934;54.294;18.598;2023-03-31T09:57:32;99176.38;;;11.45;75.18
57048;BME280;42934;54.294;18.598;2023-03-31T10:00:04;99178.03;;;11.46;75.43
57048;BME280;42934;54.294;18.598;2023-03-31T10:02:43;99184.63;;;11.39;76.04
57048;BME280;42934;54.294;18.598;2023-03-31T10:05:29;99188.63;;;11.30;75.22
57048;BME280;42934;54.294;18.598;2023-03-31T10:08:26;99191.44;;;11.41;75.38
57048;BME280;42934;54.294;18.598;2023-03-31T10:11:07;99178.84;;;11.32;73.46
57048;BME280;42934;54.294;18.598;2023-03-31T10:13:44;99182.66;;;11.42;74.58
57048;BME280;42934;54.294;18.598;2023-03-31T10:16:21;99180.38;;;11.36;74.46
57048;BME280;42934;54.294;18.598;2023-03-31T10:18:50;99183.19;;;11.33;75.67
57048;BME280;42934;54.294;18.598;2023-03-31T10:21:23;99183.56;;;11.27;76.40
57048;BME280;42934;54.294;18.598;2023-03-31T10:23:53;99184.34;;;11.13;76.83
57048;BME280;42934;54.294;18.598;2023-03-31T10:26:24;99181.28;;;11.21;76.85
57048;BME280;42934;54.294;18.598;2023-03-31T10:28:55;99181.84;;;11.26;76.90
57048;BME280;42934;54.294;18.598;2023-03-31T10:31:26;99179.28;;;11.10;76.16
57048;BME280;42934;54.294;18.598;2023-03-31T10:34:06;99186.88;;;11.14;77.05
57048;BME280;42934;54.294;18.598;2023-03-31T10:36:44;99182.41;;;11.17;77.22
57048;BME280;42934;54.294;18.598;2023-03-31T10:39:15;99186.22;;;11.11;77.98
57048;BME280;42934;54.294;18.598;2023-03-31T10:41:49;99185.25;;;10.98;78.29
57048;BME280;42934;54.294;18.598;2023-03-31T10:44:33;99196.97;;;10.92;79.34
57048;BME280;42934;54.294;18.598;2023-03-31T10:47:14;99186.34;;;10.94;80.48
57048;BME280;42934;54.294;18.598;2023-03-31T10:49:48;99182.09;;;11.07;80.59
57048;BME280;42934;54.294;18.598;2023-03-31T10:52:21;99188.25;;;10.91;82.13
57048;BME280;42934;54.294;18.598;2023-03-31T10:54:55;99181.31;;;11.05;81.58
57048;BME280;42934;54.294;18.598;2023-03-31T10:57:32;99180.50;;;11.04;81.93
57048;BME280;42934;54.294;18.598;2023-03-31T11:00:17;99177.31;;;11.13;82.03
57048;BME280;42934;54.294;18.598;2023-03-31T11:06:03;99173.31;;;11.22;81.53
57048;BME280;42934;54.294;18.598;2023-03-31T11:08:48;99174.72;;;11.28;81.17
57048;BME280;42934;54.294;18.598;2023-03-31T11:11:30;99178.50;;;11.24;80.47
57048;BME280;42934;54.294;18.598;2023-03-31T11:14:10;99171.47;;;11.39;80.12
57048;BME280;42934;54.294;18.598;2023-03-31T11:16:50;99167.53;;;11.46;80.21
57048;BME280;42934;54.294;18.598;2023-03-31T11:19:33;99169.13;;;11.48;79.07
57048;BME280;42934;54.294;18.598;2023-03-31T11:22:08;99165.19;;;11.55;78.21
57048;BME280;42934;54.294;18.598;2023-03-31T11:24:58;99163.22;;;11.45;76.68
57048;BME280;42934;54.294;18.598;2023-03-31T11:27:54;99157.78;;;11.62;77.61
57048;BME280;42934;54.294;18.598;2023-03-31T11:30:29;99167.19;;;11.66;78.11
57048;BME280;42934;54.294;18.598;2023-03-31T11:33:14;99154.03;;;11.66;75.53
57048;BME280;42934;54.294;18.598;2023-03-31T11:35:58;99154.41;;;11.60;75.78
57048;BME280;42934;54.294;18.598;2023-03-31T11:38:43;99148.78;;;11.66;75.93
57048;BME280;42934;54.294;18.598;2023-03-31T11:41:20;99150.94;;;11.74;75.32
57048;BME280;42934;54.294;18.598;2023-03-31T11:43:53;99144.09;;;11.71;75.21
57048;BME280;42934;54.294;18.598;2023-03-31T11:46:26;99150.25;;;11.70;75.55
57048;BME280;42934;54.294;18.598;2023-03-31T11:49:02;99150.44;;;11.67;76.42
57048;BME280;42934;54.294;18.598;2023-03-31T11:51:37;99161.72;;;11.55;79.57
57048;BME280;42934;54.294;18.598;2023-03-31T11:54:16;99143.44;;;11.53;79.51
57048;BME280;42934;54.294;18.598;2023-03-31T11:56:49;99134.66;;;11.67;80.62
57048;BME280;42934;54.294;18.598;2023-03-31T11:59:20;99136.88;;;11.89;81.76
57048;BME280;42934;54.294;18.598;2023-03-31T12:01:56;99128.13;;;12.03;79.82
57048;BME280;42934;54.294;18.598;2023-03-31T12:04:33;99123.91;;;12.00;81.13
57048;BME280;42934;54.294;18.598;2023-03-31T12:07:12;99122.75;;;12.04;80.00
57048;BME280;42934;54.294;18.598;2023-03-31T12:09:52;99132.28;;;12.20;79.29
57048;BME280;42934;54.294;18.598;2023-03-31T12:12:27;99124.16;;;12.10;79.37
57048;BME280;42934;54.294;18.598;2023-03-31T12:15:05;99120.78;;;11.94;79.38
57048;BME280;42934;54.294;18.598;2023-03-31T12:17:39;99112.66;;;12.11;80.04
57048;BME280;42934;54.294;18.598;2023-03-31T12:20:16;99115.03;;;12.16;78.69
57048;BME280;42934;54.294;18.598;2023-03-31T12:22:48;99109.50;;;12.06;79.22
57048;BME280;42934;54.294;18.598;2023-03-31T12:25:20;99102.81;;;12.15;79.49
57048;BME280;42934;54.294;18.598;2023-03-31T12:27:54;99104.47;;;12.30;79.06
57048;BME280;42934;54.294;18.598;2023-03-31T12:30:29;99107.56;;;12.22;77.83
57048;BME280;42934;54.294;18.598;2023-03-31T12:33:03;99107.78;;;12.19;77.12
57048;BME280;42934;54.294;18.598;2023-03-31T12:35:40;99105.97;;;12.20;77.42
57048;BME280;42934;54.294;18.598;2023-03-31T12:38:32;99106.94;;;12.19;77.11
57048;BME280;42934;54.294;18.598;2023-03-31T12:41:09;99095.38;;;12.21;77.06
57048;BME280;42934;54.294;18.598;2023-03-31T12:43:57;99104.44;;;12.03;77.27
57048;BME280;42934;54.294;18.598;2023-03-31T12:46:42;99098.22;;;12.04;78.31
57048;BME280;42934;54.294;18.598;2023-03-31T12:49:32;99099.34;;;12.00;78.70
57048;BME280;42934;54.294;18.598;2023-03-31T12:52:13;99101.69;;;12.04;79.04
57048;BME280;42934;54.294;18.598;2023-03-31T12:55:16;99095.28;;;12.09;78.77
57048;BME280;42934;54.294;18.598;2023-03-31T12:57:49;99094.75;;;12.03;79.59
57048;BME280;42934;54.294;18.598;2023-03-31T13:00:23;99089.13;;;11.95;81.46
57048;BME280;42934;54.294;18.598;2023-03-31T13:05:55;99076.22;;;12.05;81.23
57048;BME280;42934;54.294;18.598;2023-03-31T13:08:53;99079.50;;;12.09;80.94
57048;BME280;42934;54.294;18.598;2023-03-31T13:11:37;99073.72;;;12.03;81.79
57048;BME280;42934;54.294;18.598;2023-03-31T13:14:15;99077.66;;;11.96;82.93
57048;BME280;42934;54.294;18.598;2023-03-31T13:16:47;99067.50;;;12.04;81.90
57048;BME280;42934;54.294;18.598;2023-03-31T13:19:28;99074.44;;;12.05;81.63
57048;BME280;42934;54.294;18.598;2023-03-31T13:22:00;99072.56;;;12.08;81.32
57048;BME280;42934;54.294;18.598;2023-03-31T13:24:30;99071.16;;;12.02;83.84
57048;BME280;42934;54.294;18.598;2023-03-31T13:27:28;99069.09;;;12.07;82.22
57048;BME280;42934;54.294;18.598;2023-03-31T13:29:58;99075.13;;;12.09;82.15
57048;BME280;42934;54.294;18.598;2023-03-31T13:32:28;99071.16;;;12.02;82.83
57048;BME280;42934;54.294;18.598;2023-03-31T13:35:00;99070.53;;;11.70;85.93
57048;BME280;42934;54.294;18.598;2023-03-31T13:37:56;99073.47;;;11.79;86.27
57048;BME280;42934;54.294;18.598;2023-03-31T13:40:57;99064.25;;;11.72;86.48
57048;BME280;42934;54.294;18.598;2023-03-31T13:46:50;99060.13;;;11.68;86.03
57048;BME280;42934;54.294;18.598;2023-03-31T13:49:50;99055.09;;;11.36;86.91
57048;BME280;42934;54.294;18.598;2023-03-31T13:52:32;99052.84;;;11.59;85.48
57048;BME280;42934;54.294;18.598;2023-03-31T13:55:18;99053.38;;;11.64;84.56
57048;BME280;42934;54.294;18.598;2023-03-31T13:58:25;99050.84;;;11.34;85.77
57048;BME280;42934;54.294;18.598;2023-03-31T14:04:25;99051.63;;;11.50;85.28